sensor_id;sensor_type;location;lat;lon;timestamp;pressure;altitude;pressure_sealevel;temperature;humidity
55470;BME280;41334;47.872;16.384;2023-05-02T00:03:58;98933.97;;;10.54;69.33
55470;BME280;41334;47.872;16.384;2023-05-02T00:08:59;98938.38;;;10.55;70.93
55470;BME280;41334;47.872;16.384;2023-05-02T00:14:01;98933.59;;;10.47;71.93
55470;BME280;41334;47.872;16.384;2023-05-02T00:19:03;98928.81;;;10.39;70.32
55470;BME280;41334;47.872;16.384;2023-05-02T00:24:05;98933.69;;;10.42;71.79
55470;BME280;41334;47.872;16.384;2023-05-02T00:29:07;98933.22;;;10.40;70.66
55470;BME280;41334;47.872;16.384;2023-05-02T00:34:09;98926.94;;;10.48;72.75
55470;BME280;41334;47.872;16.384;2023-05-02T00:39:10;98936.22;;;10.52;72.09
55470;BME280;41334;47.872;16.384;2023-05-02T00:44:12;98941.97;;;10.56;71.72
55470;BME280;41334;47.872;16.384;2023-05-02T00:49:14;98941.97;;;10.56;71.40
55470;BME280;41334;47.872;16.384;2023-05-02T00:54:16;98954.53;;;10.62;69.93
55470;BME280;41334;47.872;16.384;2023-05-02T00:59:18;98950.94;;;10.61;69.13
55470;BME280;41334;47.872;16.384;2023-05-02T01:10:00;98953.47;;;10.71;71.03
55470;BME280;41334;47.872;16.384;2023-05-02T01:15:11;98952.53;;;10.76;69.56
55470;BME280;41334;47.872;16.384;2023-05-02T01:20:19;98950.25;;;10.78;69.71
55470;BME280;41334;47.872;16.384;2023-05-02T01:25:32;98957.22;;;10.75;70.17
55470;BME280;41334;47.872;16.384;2023-05-02T01:30:40;98954.28;;;10.72;69.99
55470;BME280;41334;47.872;16.384;2023-05-02T01:35:45;98960.09;;;10.70;69.62
55470;BME280;41334;47.872;16.384;2023-05-02T01:40:50;98962.00;;;10.61;68.79
55470;BME280;41334;47.872;16.384;2023-05-02T01:45:54;98957.41;;;10.57;69.93
55470;BME280;41334;47.872;16.384;2023-05-02T01:50:58;98954.94;;;10.55;69.38
55470;BME280;41334;47.872;16.384;2023-05-02T01:56:00;98963.25;;;10.55;70.47
55470;BME280;41334;47.872;16.384;2023-05-02T02:01:03;98967.22;;;10.49;69.53
55470;BME280;41334;47.872;16.384;2023-05-02T02:06:07;98961.31;;;10.42;70.28
55470;BME280;41334;47.872;16.384;2023-05-02T02:11:11;98954.59;;;10.34;70.96
55470;BME280;41334;47.872;16.384;2023-05-02T02:16:21;98958.13;;;10.21;70.15
55470;BME280;41334;47.872;16.384;2023-05-02T02:21:27;98966.63;;;10.11;70.32
55470;BME280;41334;47.872;16.384;2023-05-02T02:26:31;98961.84;;;10.03;70.92
55470;BME280;41334;47.872;16.384;2023-05-02T02:31:34;98958.38;;;9.97;71.82
55470;BME280;41334;47.872;16.384;2023-05-02T02:36:44;98955.72;;;9.92;71.68
55470;BME280;41334;47.872;16.384;2023-05-02T02:47:10;98979.50;;;9.60;78.79
55470;BME280;41334;47.872;16.384;2023-05-02T02:52:33;98975.84;;;9.65;76.02
55470;BME280;41334;47.872;16.384;2023-05-02T02:57:50;98979.50;;;9.60;75.60
55470;BME280;41334;47.872;16.384;2023-05-02T03:02:56;98989.91;;;9.63;72.97
55470;BME280;41334;47.872;16.384;2023-05-02T03:07:59;98993.91;;;9.71;72.96
55470;BME280;41334;47.872;16.384;2023-05-02T03:13:01;99001.19;;;9.81;73.14
55470;BME280;41334;47.872;16.384;2023-05-02T03:18:03;99001.09;;;9.86;72.44
55470;BME280;41334;47.872;16.384;2023-05-02T03:23:05;99002.41;;;9.88;72.16
55470;BME280;41334;47.872;16.384;2023-05-02T03:28:07;99005.38;;;9.92;72.02
55470;BME280;41334;47.872;16.384;2023-05-02T03:33:09;99016.09;;;9.93;72.62
55470;BME280;41334;47.872;16.384;2023-05-02T03:38:14;99011.28;;;9.99;72.96
55470;BME280;41334;47.872;16.384;2023-05-02T03:43:19;99010.88;;;10.06;72.55
55470;BME280;41334;47.872;16.384;2023-05-02T03:48:21;99013.44;;;10.16;73.19
55470;BME280;41334;47.872;16.384;2023-05-02T03:53:23;99021.75;;;10.30;73.37
55470;BME280;41334;47.872;16.384;2023-05-02T03:58:30;99033.09;;;10.42;70.79
55470;BME280;41334;47.872;16.384;2023-05-02T04:03:32;99033.69;;;10.53;70.71
55470;BME280;41334;47.872;16.384;2023-05-02T04:08:35;99032.94;;;10.74;72.03
55470;BME280;41334;47.872;16.384;2023-05-02T04:13:37;99047.00;;;11.00;72.16
55470;BME280;41334;47.872;16.384;2023-05-02T04:18:39;99049.97;;;11.26;70.46
55470;BME280;41334;47.872;16.384;2023-05-02T04:23:42;99061.41;;;11.34;71.85
55470;BME280;41334;47.872;16.384;2023-05-02T04:28:44;99075.75;;;11.13;73.03
55470;BME280;41334;47.872;16.384;2023-05-02T04:33:48;99065.50;;;11.14;71.54
55470;BME280;41334;47.872;16.384;2023-05-02T04:38:54;99075.22;;;11.34;68.52
55470;BME280;41334;47.872;16.384;2023-05-02T04:43:56;99079.91;;;11.47;70.00
55470;BME280;41334;47.872;16.384;2023-05-02T04:48:59;99076.44;;;11.64;70.79
55470;BME280;41334;47.872;16.384;2023-05-02T04:54:01;99090.13;;;11.83;68.28
55470;BME280;41334;47.872;16.384;2023-05-02T04:59:03;99087.66;;;12.12;68.12
55470;BME280;41334;47.872;16.384;2023-05-02T05:04:07;99095.94;;;12.43;68.20
55470;BME280;41334;47.872;16.384;2023-05-02T05:09:09;99087.59;;;12.83;67.06
55470;BME280;41334;47.872;16.384;2023-05-02T05:14:13;99094.97;;;13.14;66.83
55470;BME280;41334;47.872;16.384;2023-05-02T05:19:18;99095.69;;;13.45;65.63
55470;BME280;41334;47.872;16.384;2023-05-02T05:24:20;99096.31;;;13.68;65.08
55470;BME280;41334;47.872;16.384;2023-05-02T05:29:24;99097.28;;;13.81;64.70
55470;BME280;41334;47.872;16.384;2023-05-02T05:34:26;99099.66;;;14.64;62.33
55470;BME280;41334;47.872;16.384;2023-05-02T05:39:31;99098.19;;;15.17;59.54
55470;BME280;41334;47.872;16.384;2023-05-02T05:44:35;99103.38;;;15.27;59.77
55470;BME280;41334;47.872;16.384;2023-05-02T05:49:37;99100.00;;;15.63;58.26
55470;BME280;41334;47.872;16.384;2023-05-02T05:54:42;99109.97;;;15.97;58.27
55470;BME280;41334;47.872;16.384;2023-05-02T05:59:44;99121.88;;;16.19;57.27
55470;BME280;41334;47.872;16.384;2023-05-02T06:04:47;99107.91;;;16.52;54.62
55470;BME280;41334;47.872;16.384;2023-05-02T06:09:55;99120.75;;;16.90;54.15
55470;BME280;41334;47.872;16.384;2023-05-02T06:14:58;99125.03;;;17.12;52.99
55470;BME280;41334;47.872;16.384;2023-05-02T06:20:00;99125.81;;;17.24;52.38
55470;BME280;41334;47.872;16.384;2023-05-02T06:25:03;99135.34;;;17.36;51.60
55470;BME280;41334;47.872;16.384;2023-05-02T06:30:06;99142.00;;;16.82;52.94
55470;BME280;41334;47.872;16.384;2023-05-02T06:35:09;99142.69;;;17.03;52.01
55470;BME280;41334;47.872;16.384;2023-05-02T06:40:12;99142.47;;;17.21;52.06
55470;BME280;41334;47.872;16.384;2023-05-02T06:45:14;99146.75;;;17.95;51.03
55470;BME280;41334;47.872;16.384;2023-05-02T06:50:16;99149.38;;;17.51;50.40
55470;BME280;41334;47.872;16.384;2023-05-02T06:55:18;99147.69;;;17.87;50.50
55470;BME280;41334;47.872;16.384;2023-05-02T07:00:20;99155.69;;;18.01;50.59
55470;BME280;41334;47.872;16.384;2023-05-02T07:05:22;99166.47;;;18.30;49.32
55470;BME280;41334;47.872;16.384;2023-05-02T07:10:24;99169.66;;;18.45;49.17
55470;BME280;41334;47.872;16.384;2023-05-02T07:15:26;99172.38;;;18.13;49.66
55470;BME280;41334;47.872;16.384;2023-05-02T07:20:31;99178.72;;;18.26;48.93
55470;BME280;41334;47.872;16.384;2023-05-02T07:25:33;99179.50;;;18.39;49.92
55470;BME280;41334;47.872;16.384;2023-05-02T07:30:35;99189.59;;;17.87;50.69
55470;BME280;41334;47.872;16.384;2023-05-02T07:35:36;99197.13;;;17.99;50.66
55470;BME280;41334;47.872;16.384;2023-05-02T07:40:38;99209.28;;;17.78;51.27
55470;BME280;41334;47.872;16.384;2023-05-02T07:45:40;99204.88;;;17.90;51.47
55470;BME280;41334;47.872;16.384;2023-05-02T07:50:42;99208.16;;;18.36;50.45
55470;BME280;41334;47.872;16.384;2023-05-02T07:55:44;99203.88;;;17.98;51.29
55470;BME280;41334;47.872;16.384;2023-05-02T08:00:46;99204.91;;;17.53;52.57
55470;BME280;41334;47.872;16.384;2023-05-02T08:05:48;99206.78;;;17.37;52.44
55470;BME280;41334;47.872;16.384;2023-05-02T08:10:50;99207.56;;;17.49;51.87
55470;BME280;41334;47.872;16.384;2023-05-02T08:15:52;99204.66;;;17.46;51.28
55470;BME280;41334;47.872;16.384;2023-05-02T08:20:59;99205.91;;;17.85;51.02
55470;BME280;41334;47.872;16.384;2023-05-02T08:26:02;99200.56;;;17.80;50.79
55470;BME280;41334;47.872;16.384;2023-05-02T08:31:04;99215.00;;;17.70;50.92
55470;BME280;41334;47.872;16.384;2023-05-02T08:36:14;99213.88;;;18.39;49.77
55470;BME280;41334;47.872;16.384;2023-05-02T08:41:17;99215.69;;;19.07;47.68
55470;BME280;41334;47.872;16.384;2023-05-02T08:46:21;99215.75;;;18.79;48.24
55470;BME280;41334;47.872;16.384;2023-05-02T08:51:24;99217.13;;;19.01;46.47
55470;BME280;41334;47.872;16.384;2023-05-02T08:56:28;99223.44;;;19.45;47.05
55470;BME280;41334;47.872;16.384;2023-05-02T09:01:31;99230.69;;;19.30;47.37
55470;BME280;41334;47.872;16.384;2023-05-02T09:06:35;99231.94;;;19.17;46.22
55470;BME280;41334;47.872;16.384;2023-05-02T09:11:37;99243.66;;;19.38;46.70
55470;BME280;41334;47.872;16.384;2023-05-02T09:16:39;99232.66;;;18.82;47.97
55470;BME280;41334;47.872;16.384;2023-05-02T09:21:41;99243.31;;;18.77;47.76
55470;BME280;41334;47.872;16.384;2023-05-02T09:27:03;99258.81;;;18.74;46.83
55470;BME280;41334;47.872;16.384;2023-05-02T09:32:06;99250.16;;;18.79;46.64
55470;BME280;41334;47.872;16.384;2023-05-02T09:37:07;99257.88;;;18.42;47.38
55470;BME280;41334;47.872;16.384;2023-05-02T09:42:10;99256.56;;;18.24;47.47
55470;BME280;41334;47.872;16.384;2023-05-02T09:47:23;99266.38;;;18.05;49.11
55470;BME280;41334;47.872;16.384;2023-05-02T09:52:27;99265.16;;;17.29;50.52
55470;BME280;41334;47.872;16.384;2023-05-02T09:57:38;99277.06;;;17.75;49.49
55470;BME280;41334;47.872;16.384;2023-05-02T10:02:41;99273.91;;;17.16;52.93
55470;BME280;41334;47.872;16.384;2023-05-02T10:07:44;99274.78;;;16.95;55.96
55470;BME280;41334;47.872;16.384;2023-05-02T10:12:47;99275.47;;;16.59;56.06
55470;BME280;41334;47.872;16.384;2023-05-02T10:17:54;99284.59;;;16.47;56.65
55470;BME280;41334;47.872;16.384;2023-05-02T10:22:59;99277.50;;;16.50;57.18
55470;BME280;41334;47.872;16.384;2023-05-02T10:28:02;99270.50;;;16.65;57.77
55470;BME280;41334;47.872;16.384;2023-05-02T10:33:04;99276.25;;;16.47;58.46
55470;BME280;41334;47.872;16.384;2023-05-02T10:38:06;99278.09;;;16.76;56.36
55470;BME280;41334;47.872;16.384;2023-05-02T10:43:13;99276.34;;;17.17;57.12
55470;BME280;41334;47.872;16.384;2023-05-02T10:48:23;99274.47;;;17.70;55.03
55470;BME280;41334;47.872;16.384;2023-05-02T10:53:35;99275.50;;;18.02;55.24
55470;BME280;41334;47.872;16.384;2023-05-02T10:58:37;99287.94;;;18.05;53.29
55470;BME280;41334;47.872;16.384;2023-05-02T11:03:56;99274.28;;;18.56;54.99
55470;BME280;41334;47.872;16.384;2023-05-02T11:14:42;99285.50;;;19.16;50.32
55470;BME280;41334;47.872;16.384;2023-05-02T11:24:48;99272.78;;;19.66;48.26
55470;BME280;41334;47.872;16.384;2023-05-02T11:29:51;99274.56;;;18.95;49.25
55470;BME280;41334;47.872;16.384;2023-05-02T11:34:53;99281.72;;;19.24;48.43
55470;BME280;41334;47.872;16.384;2023-05-02T11:40:09;99281.25;;;19.37;48.83
55470;BME280;41334;47.872;16.384;2023-05-02T11:45:11;99273.19;;;20.77;44.29
55470;BME280;41334;47.872;16.384;2023-05-02T11:50:14;99276.94;;;19.72;46.20
55470;BME280;41334;47.872;16.384;2023-05-02T11:55:16;99267.88;;;19.78;47.01
55470;BME280;41334;47.872;16.384;2023-05-02T12:00:18;99275.59;;;19.34;45.82
55470;BME280;41334;47.872;16.384;2023-05-02T12:05:27;99279.28;;;20.05;45.59
55470;BME280;41334;47.872;16.384;2023-05-02T12:10:36;99271.06;;;19.61;45.48
55470;BME280;41334;47.872;16.384;2023-05-02T12:15:38;99278.41;;;19.66;45.08
55470;BME280;41334;47.872;16.384;2023-05-02T12:20:41;99282.41;;;19.84;44.83
55470;BME280;41334;47.872;16.384;2023-05-02T12:25:43;99284.28;;;20.31;43.88
55470;BME280;41334;47.872;16.384;2023-05-02T12:30:47;99274.63;;;20.12;44.11
55470;BME280;41334;47.872;16.384;2023-05-02T12:35:50;99276.78;;;20.00;44.40
55470;BME280;41334;47.872;16.384;2023-05-02T12:40:53;99294.09;;;19.70;44.51
55470;BME280;41334;47.872;16.384;2023-05-02T12:46:10;99299.34;;;19.24;46.08
55470;BME280;41334;47.872;16.384;2023-05-02T12:51:30;99302.31;;;18.44;47.34
55470;BME280;41334;47.872;16.384;2023-05-02T12:56:40;99302.34;;;18.59;47.52
55470;BME280;41334;47.872;16.384;2023-05-02T13:01:45;99308.16;;;18.67;47.47
55470;BME280;41334;47.872;16.384;2023-05-02T13:06:47;99307.22;;;18.91;47.41
55470;BME280;41334;47.872;16.384;2023-05-02T13:11:51;99305.53;;;18.46;47.28
55470;BME280;41334;47.872;16.384;2023-05-02T13:16:54;99314.88;;;18.78;47.25
55470;BME280;41334;47.872;16.384;2023-05-02T13:21:56;99318.72;;;18.45;48.36
55470;BME280;41334;47.872;16.384;2023-05-02T13:26:58;99309.81;;;18.15;49.56
55470;BME280;41334;47.872;16.384;2023-05-02T13:32:00;99314.63;;;17.53;49.41
55470;BME280;41334;47.872;16.384;2023-05-02T13:37:01;99310.81;;;17.58;50.75
55470;BME280;41334;47.872;16.384;2023-05-02T13:42:03;99316.53;;;17.74;50.44
55470;BME280;41334;47.872;16.384;2023-05-02T13:47:06;99326.72;;;17.58;51.12
55470;BME280;41334;47.872;16.384;2023-05-02T13:52:08;99333.63;;;17.97;54.34
55470;BME280;41334;47.872;16.384;2023-05-02T13:57:10;99329.22;;;18.36;52.54
55470;BME280;41334;47.872;16.384;2023-05-02T14:02:12;99332.00;;;19.04;51.12
55470;BME280;41334;47.872;16.384;2023-05-02T14:07:14;99326.41;;;18.48;50.60
55470;BME280;41334;47.872;16.384;2023-05-02T14:12:16;99321.66;;;18.77;50.67
55470;BME280;41334;47.872;16.384;2023-05-02T14:17:17;99322.34;;;19.02;49.96
55470;BME280;41334;47.872;16.384;2023-05-02T14:22:19;99324.81;;;18.63;50.53
55470;BME280;41334;47.872;16.384;2023-05-02T14:27:21;99323.66;;;18.76;51.27
55470;BME280;41334;47.872;16.384;2023-05-02T14:32:23;99320.75;;;18.32;51.70
55470;BME280;41334;47.872;16.384;2023-05-02T14:37:25;99319.66;;;18.37;51.95
55470;BME280;41334;47.872;16.384;2023-05-02T14:42:27;99309.94;;;18.19;51.95
55470;BME280;41334;47.872;16.384;2023-05-02T14:47:29;99312.84;;;18.10;51.57
55470;BME280;41334;47.872;16.384;2023-05-02T14:52:31;99316.91;;;18.25;51.10
55470;BME280;41334;47.872;16.384;2023-05-02T14:57:33;99318.97;;;17.75;51.69
55470;BME280;41334;47.872;16.384;2023-05-02T15:02:35;99308.72;;;17.79;51.85
55470;BME280;41334;47.872;16.384;2023-05-02T15:07:37;99311.63;;;17.83;52.07
55470;BME280;41334;47.872;16.384;2023-05-02T15:12:39;99310.44;;;17.47;52.64
55470;BME280;41334;47.872;16.384;2023-05-02T15:17:41;99314.16;;;17.39;53.34
55470;BME280;41334;47.872;16.384;2023-05-02T15:22:43;99315.13;;;17.80;52.40
55470;BME280;41334;47.872;16.384;2023-05-02T15:27:45;99312.41;;;17.35;53.24
55470;BME280;41334;47.872;16.384;2023-05-02T15:32:46;99311.22;;;17.36;53.41
55470;BME280;41334;47.872;16.384;2023-05-02T15:37:48;99316.38;;;17.46;53.30
55470;BME280;41334;47.872;16.384;2023-05-02T15:42:50;99311.34;;;17.27;54.04
55470;BME280;41334;47.872;16.384;2023-05-02T15:47:52;99314.81;;;17.12;54.48
55470;BME280;41334;47.872;16.384;2023-05-02T15:52:54;99321.06;;;16.96;54.94
55470;BME280;41334;47.872;16.384;2023-05-02T15:57:56;99315.53;;;16.75;56.00
55470;BME280;41334;47.872;16.384;2023-05-02T16:02:57;99312.34;;;16.44;56.41
55470;BME280;41334;47.872;16.384;2023-05-02T16:08:00;99323.97;;;16.04;58.00
55470;BME280;41334;47.872;16.384;2023-05-02T16:13:02;99335.13;;;16.04;57.66
55470;BME280;41334;47.872;16.384;2023-05-02T16:18:04;99338.00;;;15.87;58.40
55470;BME280;41334;47.872;16.384;2023-05-02T16:23:06;99350.41;;;15.68;59.35
55470;BME280;41334;47.872;16.384;2023-05-02T16:28:08;99344.72;;;15.56;59.66
55470;BME280;41334;47.872;16.384;2023-05-02T16:33:09;99347.59;;;15.30;60.56
55470;BME280;41334;47.872;16.384;2023-05-02T16:38:12;99357.75;;;15.26;62.27
55470;BME280;41334;47.872;16.384;2023-05-02T16:43:13;99362.88;;;15.07;64.35
55470;BME280;41334;47.872;16.384;2023-05-02T16:48:15;99361.28;;;14.80;65.54
55470;BME280;41334;47.872;16.384;2023-05-02T16:53:17;99359.00;;;14.64;65.71
55470;BME280;41334;47.872;16.384;2023-05-02T16:58:19;99359.81;;;14.48;67.64
55470;BME280;41334;47.872;16.384;2023-05-02T17:03:21;99364.88;;;14.46;67.46
55470;BME280;41334;47.872;16.384;2023-05-02T17:08:22;99361.25;;;14.19;67.62
55470;BME280;41334;47.872;16.384;2023-05-02T17:13:24;99377.75;;;14.15;67.08
55470;BME280;41334;47.872;16.384;2023-05-02T17:18:26;99384.94;;;14.08;67.96
55470;BME280;41334;47.872;16.384;2023-05-02T17:23:28;99385.56;;;14.05;67.58
55470;BME280;41334;47.872;16.384;2023-05-02T17:28:30;99389.66;;;13.99;67.94
55470;BME280;41334;47.872;16.384;2023-05-02T17:33:32;99397.13;;;13.81;69.22
55470;BME280;41334;47.872;16.384;2023-05-02T17:38:34;99400.13;;;13.62;69.70
55470;BME280;41334;47.872;16.384;2023-05-02T17:43:36;99411.03;;;13.50;71.77
55470;BME280;41334;47.872;16.384;2023-05-02T17:48:41;99402.09;;;13.30;73.02
55470;BME280;41334;47.872;16.384;2023-05-02T17:53:43;99410.19;;;13.18;73.11
55470;BME280;41334;47.872;16.384;2023-05-02T17:58:45;99415.72;;;13.18;73.18
55470;BME280;41334;47.872;16.384;2023-05-02T18:03:48;99429.34;;;13.06;74.56
55470;BME280;41334;47.872;16.384;2023-05-02T18:08:50;99422.03;;;12.88;77.03
55470;BME280;41334;47.872;16.384;2023-05-02T18:13:52;99434.38;;;12.81;77.60
55470;BME280;41334;47.872;16.384;2023-05-02T18:18:54;99429.28;;;12.75;76.86
55470;BME280;41334;47.872;16.384;2023-05-02T18:23:56;99443.59;;;12.68;77.30
55470;BME280;41334;47.872;16.384;2023-05-02T18:28:57;99445.94;;;12.61;77.67
55470;BME280;41334;47.872;16.384;2023-05-02T18:33:59;99454.91;;;12.58;78.06
55470;BME280;41334;47.872;16.384;2023-05-02T18:39:01;99465.16;;;12.57;77.91
55470;BME280;41334;47.872;16.384;2023-05-02T18:44:03;99471.63;;;12.53;78.88
55470;BME280;41334;47.872;16.384;2023-05-02T18:49:07;99474.63;;;12.43;79.87
55470;BME280;41334;47.872;16.384;2023-05-02T18:54:09;99479.03;;;12.30;79.92
55470;BME280;41334;47.872;16.384;2023-05-02T18:59:11;99489.63;;;12.28;80.04
55470;BME280;41334;47.872;16.384;2023-05-02T19:04:13;99490.34;;;12.06;82.45
55470;BME280;41334;47.872;16.384;2023-05-02T19:09:15;99499.88;;;12.00;82.55
55470;BME280;41334;47.872;16.384;2023-05-02T19:14:19;99502.44;;;11.96;83.59
55470;BME280;41334;47.872;16.384;2023-05-02T19:19:23;99508.63;;;11.93;82.52
55470;BME280;41334;47.872;16.384;2023-05-02T19:24:25;99521.09;;;11.91;82.81
55470;BME280;41334;47.872;16.384;2023-05-02T19:29:27;99532.47;;;11.89;83.20
55470;BME280;41334;47.872;16.384;2023-05-02T19:34:32;99531.66;;;11.89;83.42
55470;BME280;41334;47.872;16.384;2023-05-02T19:39:34;99539.44;;;11.87;83.92
55470;BME280;41334;47.872;16.384;2023-05-02T19:44:37;99538.94;;;11.85;84.08
55470;BME280;41334;47.872;16.384;2023-05-02T19:49:39;99545.88;;;11.82;83.67
55470;BME280;41334;47.872;16.384;2023-05-02T19:54:41;99544.31;;;11.76;84.84
55470;BME280;41334;47.872;16.384;2023-05-02T19:59:43;99542.16;;;11.73;84.58
55470;BME280;41334;47.872;16.384;2023-05-02T20:04:47;99536.09;;;11.71;83.96
55470;BME280;41334;47.872;16.384;2023-05-02T20:09:49;99553.59;;;11.66;86.03
55470;BME280;41334;47.872;16.384;2023-05-02T20:14:51;99549.81;;;11.62;86.25
55470;BME280;41334;47.872;16.384;2023-05-02T20:19:53;99555.63;;;11.61;85.32
55470;BME280;41334;47.872;16.384;2023-05-02T20:24:55;99552.06;;;11.60;84.73
55470;BME280;41334;47.872;16.384;2023-05-02T20:29:57;99550.72;;;11.58;85.83
55470;BME280;41334;47.872;16.384;2023-05-02T20:35:01;99554.63;;;11.57;84.95
55470;BME280;41334;47.872;16.384;2023-05-02T20:40:03;99550.19;;;11.55;85.70
55470;BME280;41334;47.872;16.384;2023-05-02T20:45:07;99558.38;;;11.47;86.41
55470;BME280;41334;47.872;16.384;2023-05-02T20:50:09;99560.00;;;11.48;84.97
55470;BME280;41334;47.872;16.384;2023-05-02T20:55:11;99558.38;;;11.47;85.31
55470;BME280;41334;47.872;16.384;2023-05-02T21:00:13;99560.53;;;11.50;85.35
55470;BME280;41334;47.872;16.384;2023-05-02T21:05:16;99561.38;;;11.50;85.71
55470;BME280;41334;47.872;16.384;2023-05-02T21:10:18;99559.69;;;11.49;85.63
55470;BME280;41334;47.872;16.384;2023-05-02T21:15:21;99558.88;;;11.49;85.29
55470;BME280;41334;47.872;16.384;2023-05-02T21:20:35;99564.41;;;11.49;84.14
55470;BME280;41334;47.872;16.384;2023-05-02T21:25:38;99560.00;;;11.48;85.18
55470;BME280;41334;47.872;16.384;2023-05-02T21:30:40;99560.59;;;11.45;85.06
55470;BME280;41334;47.872;16.384;2023-05-02T21:35:43;99570.84;;;11.44;86.04
55470;BME280;41334;47.872;16.384;2023-05-02T21:40:47;99575.06;;;11.42;85.72
55470;BME280;41334;47.872;16.384;2023-05-02T21:45:51;99566.75;;;11.42;84.83
55470;BME280;41334;47.872;16.384;2023-05-02T21:50:53;99571.16;;;11.43;84.17
55470;BME280;41334;47.872;16.384;2023-05-02T21:55:55;99574.25;;;11.41;85.38
55470;BME280;41334;47.872;16.384;2023-05-02T22:00:57;99567.88;;;11.41;85.16
55470;BME280;41334;47.872;16.384;2023-05-02T22:06:00;99568.97;;;11.40;83.58
55470;BME280;41334;47.872;16.384;2023-05-02T22:11:09;99572.88;;;11.39;84.20
55470;BME280;41334;47.872;16.384;2023-05-02T22:16:11;99571.47;;;11.41;84.11
55470;BME280;41334;47.872;16.384;2023-05-02T22:21:13;99580.34;;;11.38;83.26
55470;BME280;41334;47.872;16.384;2023-05-02T22:26:19;99591.97;;;11.40;84.39
55470;BME280;41334;47.872;16.384;2023-05-02T22:31:25;99580.91;;;11.40;84.70
55470;BME280;41334;47.872;16.384;2023-05-02T22:36:30;99573.50;;;11.36;83.89
55470;BME280;41334;47.872;16.384;2023-05-02T22:41:32;99583.44;;;11.37;83.27
55470;BME280;41334;47.872;16.384;2023-05-02T22:46:35;99576.53;;;11.34;82.93
55470;BME280;41334;47.872;16.384;2023-05-02T22:51:39;99579.94;;;11.31;83.77
55470;BME280;41334;47.872;16.384;2023-05-02T22:56:42;99580.50;;;11.28;82.61
55470;BME280;41334;47.872;16.384;2023-05-02T23:01:44;99571.19;;;11.24;84.33
55470;BME280;41334;47.872;16.384;2023-05-02T23:06:46;99566.56;;;11.19;83.76
55470;BME280;41334;47.872;16.384;2023-05-02T23:11:48;99566.84;;;11.18;85.05
55470;BME280;41334;47.872;16.384;2023-05-02T23:16:50;99560.81;;;11.16;83.94
55470;BME280;41334;47.872;16.384;2023-05-02T23:21:54;99567.47;;;11.15;83.03
55470;BME280;41334;47.872;16.384;2023-05-02T23:26:56;99567.53;;;11.10;84.27
55470;BME280;41334;47.872;16.384;2023-05-02T23:31:57;99562.31;;;11.08;84.08
55470;BME280;41334;47.872;16.384;2023-05-02T23:36:59;99559.63;;;11.03;83.45
55470;BME280;41334;47.872;16.384;2023-05-02T23:42:02;99558.28;;;11.00;83.33
55470;BME280;41334;47.872;16.384;2023-05-02T23:47:04;99561.34;;;10.99;83.38
55470;BME280;41334;47.872;16.384;2023-05-02T23:52:07;99555.34;;;10.92;84.35
55470;BME280;41334;47.872;16.384;2023-05-02T23:57:09;99552.88;;;10.90;83.51
